Latest Weather Observations for Newcastle Nobbys

IDN60801

Issued at 5:02 pm EDT Thursday 19 January 2017 (issued every 30 minutes, with the page automatically refreshed every 10 minutes)

About weather observations | Map of weather stations | Latest weather observations for NSW | Other Formats
Station Details ID: 061055 Name: NEWCASTLE NOBBYS SIGNAL STATION AWS Lat: -32.92 Lon: 151.80 Height: 33.0 m
Data from the previous 72 hours. | See also: Recent months at Newcastle Nobbys
Date/Time
EDT
Temp
°C
App
Temp
°C
Dew
Point
°C
Rel
Hum
%
Delta-T
°C
Wind Press
QNH
hPa
Press
MSL
hPa
Rain since
9am
mm
Dir  Spd
km/h
Gust
km/h
Spd
kts
Gust
kts
19/04:30pm 22.2 21.8 16.2 69 3.6 ENE 13 17 7 9 - - 0.0
19/04:00pm 22.4 21.7 16.4 69 3.6 ENE 15 20 8 11 - - 0.0
19/03:30pm 22.4 21.6 16.0 67 3.9 ENE 15 20 8 11 - - 0.0
19/03:00pm 22.8 21.9 15.9 65 4.2 E 15 20 8 11 - - 0.0
19/02:30pm 22.6 21.3 15.7 65 4.1 E 17 20 9 11 - - 0.0
19/02:00pm 22.1 21.1 15.7 67 3.8 E 15 22 8 12 - - 0.0
19/01:30pm 22.2 20.5 15.8 67 3.8 E 19 24 10 13 - - 0.0
19/01:00pm 21.9 20.6 15.7 68 3.7 ESE 17 22 9 12 - - 0.0
19/12:30pm 21.6 21.2 16.1 71 3.3 E 13 22 7 12 - - 0.0
19/12:00pm 21.7 20.7 16.6 73 3.1 E 17 22 9 12 - - 0.0
19/11:30am 21.1 21.4 17.1 78 2.4 SE 11 15 6 8 - - 0.0
19/11:00am 20.7 20.3 17.1 80 2.2 ESE 15 19 8 10 - - 0.0
19/10:30am 20.4 21.0 16.8 80 2.2 E 9 19 5 10 - - 0.0
19/10:00am 21.4 22.3 17.6 79 2.3 ENE 9 13 5 7 - - 0.0
19/09:30am 21.3 22.2 17.5 79 2.3 ESE 9 13 5 7 - - 0.0
19/09:00am 20.8 21.9 17.2 80 2.2 ESE 7 13 4 7 - - 0.2
19/08:30am 20.6 19.3 17.2 81 2.1 ESE 20 24 11 13 - - 0.2
19/08:00am 20.8 20.5 17.4 81 2.1 SSE 15 20 8 11 - - 0.2
19/07:30am 20.9 19.6 17.3 80 2.2 SSE 20 28 11 15 - - 0.2
19/07:14am 21.2 19.9 17.2 78 2.5 S 20 33 11 18 - - 0.2
19/07:00am 21.6 22.4 17.4 77 2.6 SSW 9 15 5 8 - - 0.2
19/06:30am 21.4 21.5 16.4 73 3.0 SSW 11 17 6 9 - - 0.2
19/06:00am 21.6 21.4 16.8 74 2.9 S 13 17 7 9 - - 0.2
19/05:30am 21.6 20.3 15.9 70 3.4 SSE 17 22 9 12 - - 0.2
19/05:00am 21.6 20.7 16.8 74 2.9 SSE 17 22 9 12 - - 0.2
19/04:30am 21.8 19.8 16.5 72 3.2 S 22 26 12 14 - - 0.2
19/04:00am 21.8 19.7 16.3 71 3.3 S 22 26 12 14 - - 0.2
19/03:30am 21.9 18.7 15.3 66 3.9 S 26 33 14 18 - - 0.2
19/03:00am 21.7 18.6 15.5 68 3.7 SSE 26 32 14 17 - - 0.2
19/02:30am 21.7 18.4 16.0 70 3.4 S 28 37 15 20 - - 0.2
19/02:00am 21.2 18.7 17.2 78 2.5 S 26 39 14 21 - - 0.2
19/01:30am 20.1 17.3 18.1 88 1.2 SE 30 37 16 20 - - 0.2
19/01:00am 22.2 20.8 18.0 77 2.6 SSE 22 30 12 16 - - 0.0
19/12:30am 22.0 20.1 18.6 81 2.1 SSE 26 32 14 17 - - 0.0
19/12:00am 21.8 19.6 18.8 83 1.9 SSE 28 33 15 18 - - 0.0
 
Date/Time
EDT
Temp
°C
App
Temp
°C
Dew
Point
°C
Rel
Hum
%
Delta-T
°C
Wind Press
QNH
hPa
Press
MSL
hPa
Rain since
9am
mm
Dir  Spd
km/h
Gust
km/h
Spd
kts
Gust
kts
18/11:30pm 22.0 19.8 18.8 82 2.0 SSE 28 32 15 17 - - 0.0
18/11:00pm 21.9 20.3 19.1 84 1.8 SSE 26 30 14 16 - - 0.0
18/10:30pm 21.7 20.4 19.1 85 1.6 S 24 28 13 15 - - 0.0
18/10:00pm 21.2 19.2 19.1 88 1.3 S 28 35 15 19 - - 0.0
18/09:30pm 20.8 18.1 19.6 93 0.8 S 33 39 18 21 - - 0.0
18/09:00pm 21.9 18.5 19.8 88 1.3 S 37 44 20 24 - - 0.0
18/08:30pm 23.0 21.4 20.1 84 1.9 S 28 32 15 17 - - 0.0
18/08:00pm 23.1 22.0 20.2 84 1.9 S 26 33 14 18 - - 0.0
18/07:30pm 23.4 21.1 20.2 82 2.1 S 32 37 17 20 - - 0.0
18/07:00pm 23.5 21.0 20.2 82 2.1 SSE 33 41 18 22 - - 0.0
18/06:30pm 23.7 21.1 20.6 83 2.0 SSE 35 43 19 23 - - 0.0
18/06:00pm 23.5 21.9 20.8 85 1.8 S 30 37 16 20 - - 0.0
18/05:30pm 23.8 24.4 21.3 86 1.6 SSW 20 28 11 15 - - 0.0
18/05:00pm 23.1 21.1 20.8 87 1.5 SSW 32 44 17 24 - - 0.0
18/04:30pm 23.4 20.9 20.9 86 1.6 SSW 35 44 19 24 - - 0.0
18/04:00pm 23.8 20.9 20.9 84 1.9 SSW 37 50 20 27 - - 0.0
18/03:30pm 24.2 22.3 21.3 84 1.9 SSW 33 43 18 23 - - 0.0
18/03:00pm 24.4 22.7 21.3 83 2.0 SSW 32 39 17 21 - - 0.0
18/02:30pm 25.1 24.9 22.0 83 2.1 S 26 32 14 17 - - 0.0
18/02:00pm 24.9 24.4 22.2 85 1.8 S 28 32 15 17 - - 0.0
18/01:30pm 24.7 24.2 22.2 86 1.7 S 28 33 15 18 - - 0.0
18/01:00pm 25.4 24.8 21.9 81 2.3 S 28 33 15 18 - - 0.0
18/12:36pm 29.6 25.7 18.7 52 7.0 WSW 37 56 20 30 - - 0.0
18/12:35pm 30.8 26.8 18.5 47 7.9 W 37 54 20 29 - - 0.0
18/12:33pm 36.3 32.3 19.3 37 11.3 WNW 39 56 21 30 - - 0.0
18/12:30pm 37.9 32.2 17.3 29 13.4 NW 43 63 23 34 - - 0.0
18/12:00pm 37.2 30.9 17.2 30 12.9 NW 46 65 25 35 - - 0.0
18/11:31am 37.3 30.5 16.8 29 13.2 NW 48 69 26 37 - - 0.0
18/11:30am 37.2 30.9 17.2 30 12.9 NW 46 61 25 33 - - 0.0
18/11:11am 37.4 30.3 16.9 30 13.2 WNW 50 69 27 37 - - 0.0
18/11:00am 37.0 29.6 17.1 31 12.9 NW 52 70 28 38 - - 0.0
18/10:30am 36.4 28.3 16.5 30 12.7 WNW 54 74 29 40 - - 0.0
18/10:04am 35.9 28.6 16.6 31 12.3 WNW 50 70 27 38 - - 0.0
18/10:00am 35.7 27.6 16.4 31 12.3 WNW 54 70 29 38 - - 0.0
18/09:30am 35.4 28.3 17.1 33 11.8 WNW 50 78 27 42 - - 0.0
18/09:00am 34.7 27.6 17.0 35 11.3 NW 50 69 27 37 - - 0.0
18/08:52am 34.5 28.5 16.8 34 11.3 WNW 44 67 24 36 - - 0.0
18/08:30am 34.1 28.4 17.3 36 10.8 WNW 43 57 23 31 - - 0.0
18/08:18am 33.8 27.9 17.1 37 10.7 NW 44 65 24 35 - - 0.0
18/08:00am 33.2 28.2 17.0 38 10.3 NW 39 54 21 29 - - 0.0
18/07:38am 33.3 27.6 17.1 38 10.3 WNW 43 61 23 33 - - 0.0
18/07:30am 33.1 27.3 16.9 38 10.3 NW 43 57 23 31 - - 0.0
18/07:00am 32.4 27.3 16.7 39 9.9 NW 39 54 21 29 - - 0.0
18/06:30am 32.3 27.1 16.6 39 9.9 NW 39 52 21 28 - - 0.0
18/06:00am 31.9 27.9 16.6 39 9.7 NW 33 52 18 28 - - 0.0
18/05:30am 32.2 27.7 16.5 39 9.9 NW 35 50 19 27 - - 0.0
18/05:00am 30.6 28.3 17.7 46 8.2 NW 26 35 14 19 - - 0.0
18/04:30am 30.5 29.1 17.9 47 8.1 NW 22 28 12 15 - - 0.0
18/04:00am 29.9 29.0 19.0 52 7.1 NW 22 28 12 15 - - 0.0
18/03:30am 26.9 28.5 21.4 72 3.7 NNW 15 19 8 10 - - 0.0
18/03:00am 26.9 29.1 21.9 74 3.4 NNW 13 17 7 9 - - 0.0
18/02:30am 27.4 29.6 21.9 72 3.7 NNW 13 15 7 8 - - 0.0
18/02:00am 27.9 29.6 21.7 69 4.2 NNW 15 17 8 9 - - 0.0
18/01:30am 28.3 30.7 21.6 67 4.5 NNW 11 13 6 7 - - 0.0
18/01:00am 29.1 31.0 21.3 62 5.2 NNW 13 17 7 9 - - 0.0
18/12:30am 28.9 30.8 21.4 64 5.0 NNW 13 15 7 8 - - 0.0
18/12:00am 29.7 30.8 20.5 57 6.1 NNW 15 20 8 11 - - 0.0
 
Date/Time
EDT
Temp
°C
App
Temp
°C
Dew
Point
°C
Rel
Hum
%
Delta-T
°C
Wind Press
QNH
hPa
Press
MSL
hPa
Rain since
9am
mm
Dir  Spd
km/h
Gust
km/h
Spd
kts
Gust
kts
17/11:30pm 29.4 29.7 20.5 58 5.9 N 19 22 10 12 - - 0.0
17/11:00pm 29.1 29.6 20.0 58 6.0 N 17 20 9 11 - - 0.0
17/10:30pm 29.2 29.1 19.5 56 6.3 NNE 19 20 10 11 - - 0.0
17/10:00pm 29.1 28.7 19.4 55 6.3 NNE 20 28 11 15 - - 0.0
17/09:30pm 28.5 28.3 19.4 57 5.9 NE 19 22 10 12 - - 0.0
17/09:00pm 28.7 28.6 19.6 58 5.9 NE 19 26 10 14 - - 0.0
17/08:30pm 29.3 28.8 19.9 57 6.2 NE 22 32 12 17 - - 0.0
17/08:00pm 28.3 27.7 20.6 63 5.1 NE 24 33 13 18 - - 0.0
17/07:30pm 28.5 26.6 20.2 60 5.5 NE 30 35 16 19 - - 0.0
17/07:00pm 27.4 27.6 20.5 66 4.5 ENE 20 28 11 15 - - 0.0
17/06:30pm 27.4 26.8 20.5 66 4.5 ENE 24 30 13 16 - - 0.0
17/06:00pm 26.8 26.1 20.2 67 4.3 ENE 24 32 13 17 - - 0.0
17/05:30pm 26.3 24.8 20.2 69 4.0 ENE 28 33 15 18 - - 0.0
17/05:00pm 26.8 25.3 20.2 67 4.3 ENE 28 35 15 19 - - 0.0
17/04:30pm 26.8 24.3 20.2 67 4.3 ENE 33 41 18 22 - - 0.0
17/04:00pm 26.5 23.9 19.9 67 4.3 ENE 33 43 18 23 - - 0.0
17/03:30pm 26.4 24.6 20.3 69 4.0 ENE 30 35 16 19 - - 0.0
17/03:00pm 26.0 24.7 20.6 72 3.5 ENE 28 35 15 19 - - 0.0
17/02:30pm 26.4 25.6 20.9 72 3.6 ENE 26 32 14 17 - - 0.0
17/02:00pm 27.3 27.8 20.9 68 4.2 E 19 28 10 15 - - 0.0
17/01:30pm 30.6 31.1 19.3 51 7.4 WNW 15 26 8 14 - - 0.0
17/01:28pm 30.4 30.8 19.1 50 7.4 WNW 15 26 8 14 - - 0.0
17/01:00pm 35.5 36.1 20.2 40 10.3 NW 17 28 9 15 - - 0.0
17/12:46pm 34.0 35.2 21.4 47 8.5 NW 17 28 9 15 - - 0.0
17/12:30pm 28.8 31.2 21.6 65 4.8 ENE 11 20 6 11 - - 0.0
17/12:00pm 26.8 27.8 21.1 71 3.8 NE 17 24 9 13 - - 0.0
17/11:30am 26.3 27.2 20.8 71 3.6 NE 17 22 9 12 - - 0.0
17/11:00am 26.3 27.7 21.1 73 3.4 ENE 15 17 8 9 - - 0.0
17/10:30am 26.2 29.1 21.8 77 2.9 NE 9 13 5 7 - - 0.0
17/10:00am 25.5 27.8 20.7 75 3.2 NE 9 13 5 7 - - 0.0
17/09:30am 24.7 26.8 21.0 80 2.4 N 11 13 6 7 - - 0.0
17/09:00am 23.1 24.6 20.6 86 1.6 NNW 13 17 7 9 - - 0.0
17/08:30am 22.2 24.1 20.5 90 1.1 NW 11 15 6 8 - - 0.0
17/08:00am 21.4 22.1 20.4 94 0.6 NW 17 22 9 12 - - 0.0
17/07:30am 21.5 24.6 20.3 93 0.8 N 4 9 2 5 - - 0.0
17/07:00am 21.4 24.8 20.9 97 0.3 S 4 4 2 2 - - 0.0
17/06:30am 20.7 23.2 20.2 97 0.3 S 7 9 4 5 - - 0.0
17/06:00am 20.8 24.4 20.5 98 0.2 WSW 2 6 1 3 - - 0.0
17/05:30am 20.8 24.4 20.5 98 0.2 WNW 2 6 1 3 - - 0.0
17/05:00am 21.0 23.8 20.5 97 0.3 NNW 6 7 3 4 - - 0.0
17/04:30am 21.2 23.5 20.7 97 0.3 NE 9 11 5 6 - - 0.0
17/04:00am 21.3 24.1 20.8 97 0.3 ENE 7 11 4 6 - - 0.0
17/03:30am 21.3 23.2 20.6 96 0.5 ENE 11 15 6 8 - - 0.0
17/03:00am 21.4 23.7 20.7 96 0.5 ENE 9 13 5 7 - - 0.0
17/02:30am 21.4 23.7 20.6 95 0.5 ENE 9 13 5 7 - - 0.0
17/02:00am 21.4 24.0 20.4 94 0.6 NE 7 13 4 7 - - 0.0
17/01:30am 21.5 24.0 20.3 93 0.8 NE 7 13 4 7 - - 0.0
17/01:00am 21.6 23.3 20.2 92 0.9 NE 11 15 6 8 - - 0.0
17/12:30am 21.8 23.2 20.3 91 1.0 NE 13 19 7 10 - - 0.0
17/12:00am 21.9 22.9 20.2 90 1.1 NE 15 20 8 11 - - 0.0
 
Date/Time
EDT
Temp
°C
App
Temp
°C
Dew
Point
°C
Rel
Hum
%
Delta-T
°C
Wind Press
QNH
hPa
Press
MSL
hPa
Rain since
9am
mm
Dir  Spd
km/h
Gust
km/h
Spd
kts
Gust
kts
16/11:30pm 22.0 22.2 20.1 89 1.2 NE 19 24 10 13 - - 0.0
16/11:00pm 22.2 22.7 20.1 88 1.4 NE 17 26 9 14 - - 0.0
16/10:30pm 22.3 22.2 20.0 87 1.5 NE 20 26 11 14 - - 0.0
16/10:00pm 22.3 22.4 20.0 87 1.5 NE 19 24 10 13 - - 0.0
16/09:30pm 22.4 22.5 19.9 86 1.6 NE 19 24 10 13 - - 0.0
16/09:00pm 22.5 22.4 19.9 85 1.7 ENE 20 30 11 16 - - 0.0
16/08:30pm 22.2 21.2 19.7 86 1.6 ENE 24 33 13 18 - - 0.0
16/08:00pm 22.4 19.8 19.6 84 1.8 ENE 32 39 17 21 - - 0.0
16/07:30pm 22.6 19.7 19.2 81 2.2 ENE 33 43 18 23 - - 0.0
16/07:00pm 22.8 19.4 19.0 79 2.4 ENE 35 46 19 25 - - 0.0
16/06:30pm 23.2 19.3 18.7 76 2.8 ENE 37 46 20 25 - - 0.0
16/06:00pm 23.2 19.3 18.7 76 2.8 ENE 37 46 20 25 - - 0.0
16/05:30pm 23.4 18.7 18.7 75 3.0 ENE 41 50 22 27 - - 0.0

Other Formats:

Comma delimited format used in spreadsheet applications
http://www.bom.gov.au/fwo/IDN60801/IDN60801.94774.axf

JavaScript Object Notation format (JSON) in row-major order
http://www.bom.gov.au/fwo/IDN60801/IDN60801.94774.json